Kanesville, Utah
Current Conditions -  °F | °C
As of 5:53 AM on Saturday 01 Nov 2014 (Local Time) from KOGD Reporting Station
Clear Clear  
Wind Chill: 16°   Ceiling: Unl
Heat Index: 16°   Visibility: 10mi
Dew Point: -1°   Wind: 9mph
Humidity: 32%   Direction: 170°S
Pressure: 29.68"   Gusts: NA
Location:  41.1783°N, 112.12°W
Report Text: KOGD 011153Z AUTO 17008KT 10SM CLR 16/M01 A2968 RMK AO2 SLP002 T01611006 10178 20150 56014 TSNO
Loading
Personal Weather Stations






























Interactive Weather Map
Tropical Storm Tracking
New forecast layout! Learn more

10-Day Weather Forecast

Advertisements
Track Severe Weather on mobile